Time;durP1;ratioP1;P1;durP2;ratioP2;P2;SDS_P1;SDS_P2;PMS_P1;PMS_P2;Temp;Humidity;BMP_temperature;BMP_pressure;BME280_temperature;BME280_humidity;BME280_pressure;Samples;Min_cycle;Max_cycle;Signal;HPM_P1;HPM_P2
2021/07/07 00:01:58;;;;;;;1.92;1.50;;;;;;;13.96;91.75;95546.59;4992840;28;20270;-79
2021/07/07 00:04:23;;;;;;;3.43;1.60;;;;;;;13.97;91.47;95547.41;4993441;28;20204;-78
2021/07/07 00:06:49;;;;;;;2.47;1.70;;;;;;;13.94;91.16;95560.75;4960389;28;20196;-77
2021/07/07 00:09:14;;;;;;;2.20;1.60;;;;;;;13.91;91.51;95548.06;4973716;28;20259;-78
2021/07/07 00:11:39;;;;;;;1.80;1.70;;;;;;;13.93;91.49;95539.06;4957070;28;20309;-79
2021/07/07 00:14:05;;;;;;;2.30;2.07;;;;;;;13.92;91.36;95534.84;4956942;28;20202;-79
2021/07/07 00:16:30;;;;;;;2.13;1.77;;;;;;;13.89;91.63;95530.78;4981434;28;20189;-79
2021/07/07 00:18:55;;;;;;;1.97;1.67;;;;;;;13.88;91.33;95526.53;4974587;28;20212;-79
2021/07/07 00:21:20;;;;;;;1.80;1.70;;;;;;;13.90;91.46;95534.19;4973213;28;20187;-79
2021/07/07 00:23:46;;;;;;;1.77;1.67;;;;;;;13.93;91.71;95543.47;4956519;28;20180;-78
2021/07/07 00:26:11;;;;;;;1.93;1.77;;;;;;;13.90;91.84;95549.84;4976980;28;20188;-78
2021/07/07 00:28:36;;;;;;;2.87;2.10;;;;;;;13.85;91.90;95542.50;4978594;28;20231;-79
2021/07/07 00:31:02;;;;;;;3.00;1.50;;;;;;;13.93;92.39;95525.22;4973334;28;20208;-79
2021/07/07 00:33:27;;;;;;;3.67;1.47;;;;;;;13.92;91.88;95510.53;4972921;28;20200;-78
2021/07/07 00:35:53;;;;;;;1.70;1.30;;;;;;;13.98;91.59;95505.44;4972201;28;20648;-79
2021/07/07 00:38:18;;;;;;;2.43;1.60;;;;;;;13.93;91.44;95512.97;4968200;28;20246;-79
2021/07/07 00:40:44;;;;;;;1.70;1.60;;;;;;;13.94;91.74;95529.44;4976536;28;20180;-78
2021/07/07 00:43:11;;;;;;;2.83;1.50;;;;;;;13.96;91.78;95519.63;4992268;28;20693;-79
2021/07/07 00:45:36;;;;;;;2.50;1.50;;;;;;;13.97;91.80;95521.28;4969731;28;20204;-77
2021/07/07 00:48:02;;;;;;;1.57;1.47;;;;;;;13.96;91.62;95517.88;4973883;28;20184;-79
2021/07/07 00:50:27;;;;;;;1.50;1.40;;;;;;;13.98;91.14;95520.31;4993719;28;20184;-79
2021/07/07 00:52:58;;;;;;;1.90;1.80;;;;;;;14.01;91.28;95535.63;4993264;28;20204;-79
2021/07/07 00:55:24;;;;;;;1.37;1.20;;;;;;;13.95;90.83;95518.00;4992278;28;20187;-79
2021/07/07 00:57:50;;;;;;;1.75;1.65;;;;;;;13.95;90.95;95525.84;4969021;28;20188;-78
2021/07/07 01:00:19;;;;;;;1.73;1.50;;;;;;;13.97;91.06;95529.13;4975684;28;20353;-78
2021/07/07 01:02:46;;;;;;;1.63;1.50;;;;;;;13.96;91.17;95533.53;4975693;28;20208;-77
2021/07/07 01:05:14;;;;;;;1.50;1.40;;;;;;;13.96;91.44;95530.06;4974431;28;20188;-78
2021/07/07 01:07:39;;;;;;;1.87;1.73;;;;;;;13.87;90.95;95511.88;4973334;28;20563;-77
2021/07/07 01:10:06;;;;;;;4.85;1.40;;;;;;;13.98;90.40;95500.22;4965894;28;20199;-78
2021/07/07 01:12:32;;;;;;;2.10;1.50;;;;;;;13.93;91.02;95491.28;4991571;28;20214;-77
2021/07/07 01:15:01;;;;;;;4.23;1.50;;;;;;;14.05;90.09;95482.09;4991851;28;20690;-78
2021/07/07 01:17:29;;;;;;;4.13;1.60;;;;;;;13.97;90.73;95493.38;4976092;28;20198;-79
2021/07/07 01:19:56;;;;;;;1.83;1.50;;;;;;;13.96;91.17;95522.25;4978919;28;20306;-79
2021/07/07 01:22:21;;;;;;;3.20;1.60;;;;;;;13.95;90.91;95529.25;4956009;28;20211;-79
2021/07/07 01:24:46;;;;;;;2.00;1.60;;;;;;;13.92;90.80;95532.22;4972486;28;20181;-78
2021/07/07 01:27:12;;;;;;;3.23;1.73;;;;;;;13.75;91.20;95531.47;4972058;28;20637;-79
2021/07/07 01:29:37;;;;;;;3.13;1.80;;;;;;;13.77;91.49;95536.50;4977023;28;20661;-78
2021/07/07 01:32:03;;;;;;;2.40;1.70;;;;;;;13.70;92.39;95532.97;4983080;28;20215;-78
2021/07/07 01:34:28;;;;;;;3.07;1.60;;;;;;;13.75;91.64;95531.47;4991502;28;20237;-77
2021/07/07 01:36:53;;;;;;;2.50;1.50;;;;;;;13.74;91.70;95529.03;4992556;28;20180;-78
2021/07/07 01:39:19;;;;;;;1.40;1.30;;;;;;;13.72;91.66;95539.63;4986753;28;20613;-79
2021/07/07 01:41:45;;;;;;;3.67;1.50;;;;;;;13.72;91.59;95544.84;4979582;28;20215;-78
2021/07/07 01:44:10;;;;;;;2.70;2.37;;;;;;;13.79;91.47;95545.00;4990519;28;20184;-78
2021/07/07 01:46:35;;;;;;;2.37;1.67;;;;;;;13.77;91.87;95539.94;4975066;28;20179;-77
2021/07/07 01:49:01;;;;;;;3.10;1.70;;;;;;;13.76;91.96;95548.75;4975309;28;20528;-79
2021/07/07 01:51:26;;;;;;;2.10;1.60;;;;;;;13.78;92.02;95535.53;4964160;28;20574;-78
2021/07/07 01:53:51;;;;;;;4.57;1.70;;;;;;;13.76;91.92;95540.09;4973055;28;20392;-78
2021/07/07 01:56:17;;;;;;;2.60;1.87;;;;;;;13.77;92.05;95539.94;4983366;28;20523;-78
2021/07/07 01:58:42;;;;;;;3.07;1.70;;;;;;;13.78;92.19;95538.13;4990998;28;20200;-79
2021/07/07 02:01:08;;;;;;;6.33;1.80;;;;;;;13.78;91.96;95538.97;4967540;28;20193;-77
2021/07/07 02:03:33;;;;;;;3.57;1.50;;;;;;;13.73;91.70;95543.06;4961685;28;20290;-79
2021/07/07 02:05:58;;;;;;;2.83;1.63;;;;;;;13.73;91.83;95536.03;4961867;28;20185;-79
2021/07/07 02:08:24;;;;;;;3.03;1.50;;;;;;;13.78;91.97;95544.19;4991303;28;20176;-78
2021/07/07 02:10:49;;;;;;;1.40;1.30;;;;;;;13.80;91.85;95544.84;4974840;28;20184;-77
2021/07/07 02:13:15;;;;;;;1.67;1.30;;;;;;;13.82;91.77;95553.31;4979142;28;20625;-79
2021/07/07 02:15:40;;;;;;;3.00;1.50;;;;;;;13.84;91.92;95553.94;4986170;28;20188;-79
2021/07/07 02:18:07;;;;;;;1.37;1.27;;;;;;;13.83;91.72;95544.47;4974858;28;20207;-78
2021/07/07 02:20:41;;;;;;;1.50;1.40;;;;;;;13.82;91.61;95548.09;4992285;28;20239;-79
2021/07/07 02:23:11;;;;;;;1.63;1.33;;;;;;;13.82;90.65;95557.72;4980591;28;20787;-78
2021/07/07 02:25:39;;;;;;;2.23;1.60;;;;;;;13.80;90.42;95555.28;4976793;28;20207;-79
2021/07/07 02:28:05;;;;;;;2.30;1.60;;;;;;;13.75;89.19;95549.72;4971864;28;20184;-79
2021/07/07 02:30:33;;;;;;;3.23;1.57;;;;;;;13.70;89.04;95539.00;4971694;28;20187;-79
2021/07/07 02:32:59;;;;;;;1.63;1.30;;;;;;;13.60;87.19;95523.53;4954245;28;20262;-79
2021/07/07 02:35:29;;;;;;;2.10;1.27;;;;;;;13.68;87.96;95521.84;4966614;28;20180;-79
2021/07/07 02:37:56;;;;;;;2.83;1.30;;;;;;;13.84;86.71;95508.75;4974735;28;20211;-79
2021/07/07 02:40:24;;;;;;;2.43;1.60;;;;;;;13.70;87.19;95507.69;4991047;28;20211;-78
2021/07/07 02:42:50;;;;;;;3.00;1.60;;;;;;;13.63;87.85;95505.91;4973934;28;20216;-77
2021/07/07 02:45:16;;;;;;;3.33;1.40;;;;;;;13.55;87.86;95504.94;4977029;28;20618;-78
2021/07/07 02:47:42;;;;;;;6.23;1.80;;;;;;;13.49;87.92;95504.78;4976373;28;20264;-78
2021/07/07 02:50:09;;;;;;;2.17;1.40;;;;;;;13.52;88.07;95512.28;4958527;28;20188;-78
2021/07/07 02:52:37;;;;;;;4.20;1.60;;;;;;;13.54;88.50;95533.81;4958282;28;20228;-78
2021/07/07 02:55:03;;;;;;;5.73;1.80;;;;;;;13.51;88.21;95550.56;4958134;28;20192;-79
2021/07/07 02:57:28;;;;;;;4.37;1.43;;;;;;;13.48;87.45;95550.09;4980655;28;20284;-78
2021/07/07 02:59:53;;;;;;;5.57;1.63;;;;;;;13.41;87.17;95557.75;4974693;28;20208;-80
2021/07/07 03:02:18;;;;;;;4.77;1.70;;;;;;;13.36;87.76;95560.06;4975133;28;20212;-79
2021/07/07 03:04:44;;;;;;;5.13;2.10;;;;;;;13.31;88.94;95565.75;4988721;28;20664;-79
2021/07/07 03:07:09;;;;;;;4.60;1.77;;;;;;;13.30;88.53;95558.91;4987500;28;20249;-77
2021/07/07 03:09:34;;;;;;;3.43;1.53;;;;;;;13.39;88.27;95561.53;4988050;28;20693;-79
2021/07/07 03:12:00;;;;;;;3.60;1.53;;;;;;;13.36;88.57;95561.88;4993376;28;20211;-79
2021/07/07 03:14:25;;;;;;;4.73;1.70;;;;;;;13.30;88.81;95553.72;4993961;28;20175;-78
2021/07/07 03:16:50;;;;;;;4.03;1.60;;;;;;;13.42;88.09;95548.97;4982396;28;20562;-77
2021/07/07 03:19:16;;;;;;;3.43;1.60;;;;;;;13.32;89.25;95549.13;4968993;28;20645;-78
2021/07/07 03:21:41;;;;;;;10.10;2.00;;;;;;;13.28;89.64;95557.47;4976908;28;20671;-79
2021/07/07 03:24:09;;;;;;;2.60;1.70;;;;;;;13.28;89.63;95565.28;4993887;28;20755;-79
2021/07/07 03:26:34;;;;;;;3.37;1.40;;;;;;;13.25;88.95;95566.44;4964350;28;20584;-79
2021/07/07 03:28:59;;;;;;;3.10;1.50;;;;;;;13.31;88.90;95550.13;4963672;28;20195;-77
2021/07/07 03:31:25;;;;;;;4.73;1.53;;;;;;;13.28;88.56;95542.63;4957499;28;20735;-78
2021/07/07 03:33:50;;;;;;;3.43;1.33;;;;;;;13.23;89.36;95539.69;4958155;28;20188;-78
2021/07/07 03:36:17;;;;;;;3.93;1.70;;;;;;;13.25;89.37;95563.00;4956847;28;20195;-77
2021/07/07 03:38:42;;;;;;;4.53;2.07;;;;;;;13.22;89.05;95576.38;4981136;28;20243;-79
2021/07/07 03:41:07;;;;;;;2.43;1.77;;;;;;;13.17;89.48;95558.59;4975979;28;20216;-78
2021/07/07 03:43:33;;;;;;;4.67;2.00;;;;;;;13.25;88.90;95535.16;4992982;28;20215;-79
2021/07/07 03:45:58;;;;;;;3.10;1.70;;;;;;;13.23;88.74;95520.63;4977098;28;20220;-79
2021/07/07 03:48:23;;;;;;;3.00;1.70;;;;;;;13.20;88.86;95523.56;4984039;28;20188;-79
2021/07/07 03:50:49;;;;;;;4.37;1.47;;;;;;;13.19;88.71;95543.63;4968690;28;20663;-78
2021/07/07 03:53:14;;;;;;;7.67;1.60;;;;;;;13.22;88.94;95547.69;4992828;28;20210;-78
2021/07/07 03:55:40;;;;;;;5.33;1.70;;;;;;;13.12;88.89;95540.00;4976793;28;20180;-79
2021/07/07 03:58:05;;;;;;;5.53;1.67;;;;;;;13.35;87.79;95528.94;4970983;28;22078;-79
2021/07/07 04:00:30;;;;;;;2.50;1.57;;;;;;;13.22;88.65;95558.09;4962063;28;20277;-76
2021/07/07 04:02:57;;;;;;;3.90;1.60;;;;;;;13.21;89.36;95583.38;4965178;28;20205;-77
2021/07/07 04:05:23;;;;;;;4.33;1.73;;;;;;;13.21;89.64;95606.03;4992731;28;20564;-77
2021/07/07 04:07:49;;;;;;;2.17;1.67;;;;;;;13.20;89.42;95620.88;4992989;28;20175;-78
2021/07/07 04:10:15;;;;;;;2.70;1.60;;;;;;;13.05;89.65;95606.78;4964373;28;20533;-78
2021/07/07 04:12:42;;;;;;;2.90;1.80;;;;;;;12.98;90.56;95614.44;4987470;28;20567;-77
2021/07/07 04:15:09;;;;;;;4.33;2.47;;;;;;;12.88;91.08;95618.16;4992573;28;20184;-79
2021/07/07 04:17:35;;;;;;;3.47;1.70;;;;;;;12.99;91.05;95610.06;4992371;28;20261;-78
2021/07/07 04:20:00;;;;;;;2.90;1.70;;;;;;;13.12;90.41;95601.75;4983223;28;20295;-78
2021/07/07 04:22:26;;;;;;;2.57;1.90;;;;;;;13.08;90.09;95601.28;4967868;28;20211;-78
2021/07/07 04:24:51;;;;;;;6.30;2.13;;;;;;;13.02;91.14;95596.69;4976252;28;20187;-78
2021/07/07 04:27:16;;;;;;;4.37;2.20;;;;;;;12.98;90.25;95593.56;4992400;28;20180;-77
2021/07/07 04:29:42;;;;;;;2.73;1.60;;;;;;;13.02;90.67;95589.69;4972752;28;20186;-78
2021/07/07 04:32:07;;;;;;;5.00;1.77;;;;;;;13.01;90.40;95580.25;4964553;28;20212;-78
2021/07/07 04:34:33;;;;;;;3.83;1.87;;;;;;;13.02;90.50;95578.44;4972911;28;20227;-77
2021/07/07 04:36:58;;;;;;;4.30;1.50;;;;;;;13.19;89.38;95581.88;4973072;28;20272;-78
2021/07/07 04:39:23;;;;;;;3.87;1.80;;;;;;;13.20;90.27;95584.34;4972791;28;20201;-78
2021/07/07 04:41:49;;;;;;;4.27;1.93;;;;;;;13.24;89.95;95590.03;4979039;28;20216;-76
2021/07/07 04:44:14;;;;;;;2.23;1.60;;;;;;;13.32;89.47;95593.47;4967956;28;20179;-78
2021/07/07 04:46:40;;;;;;;2.13;1.83;;;;;;;13.38;89.18;95607.66;4975971;28;20186;-78
2021/07/07 04:49:05;;;;;;;4.10;2.00;;;;;;;13.27;88.77;95608.81;4992244;28;20281;-77
2021/07/07 04:51:30;;;;;;;3.50;1.57;;;;;;;13.26;88.06;95616.81;4965379;28;20212;-79
2021/07/07 04:53:56;;;;;;;3.27;1.93;;;;;;;13.40;87.96;95616.13;4978642;28;20539;-78
2021/07/07 04:56:21;;;;;;;2.80;1.57;;;;;;;13.48;88.20;95612.72;4975699;28;20282;-79
2021/07/07 04:58:47;;;;;;;4.43;1.63;;;;;;;13.45;87.72;95606.03;4975797;28;20199;-79
2021/07/07 05:01:12;;;;;;;2.83;1.70;;;;;;;13.54;88.19;95588.59;4992972;28;20207;-78
2021/07/07 05:03:37;;;;;;;2.23;1.60;;;;;;;13.80;87.11;95588.38;4980011;28;20192;-78
2021/07/07 05:06:03;;;;;;;2.80;1.73;;;;;;;13.78;86.41;95585.94;4974323;28;20188;-79
2021/07/07 05:08:28;;;;;;;2.40;1.50;;;;;;;13.72;87.61;95599.66;4974107;28;20263;-78
2021/07/07 05:10:53;;;;;;;3.57;1.60;;;;;;;13.73;87.78;95621.34;4956118;28;20184;-77
2021/07/07 05:13:19;;;;;;;2.17;1.97;;;;;;;13.72;87.70;95612.69;4974352;28;20208;-78
2021/07/07 05:15:48;;;;;;;5.10;1.70;;;;;;;13.77;87.93;95606.97;4967919;28;20186;-80
2021/07/07 05:18:14;;;;;;;3.70;1.70;;;;;;;13.81;87.33;95619.53;4976507;28;20231;-80
2021/07/07 05:20:40;;;;;;;5.07;1.70;;;;;;;13.77;87.02;95623.44;4969292;28;20184;-78
2021/07/07 05:23:08;;;;;;;3.40;1.70;;;;;;;13.82;87.19;95630.78;4966550;28;20215;-78
2021/07/07 05:25:38;;;;;;;7.73;2.10;;;;;;;13.93;87.16;95642.69;4979566;28;20184;-78
2021/07/07 05:28:04;;;;;;;3.97;1.50;;;;;;;14.01;87.08;95642.66;4990225;28;20270;-79
2021/07/07 05:30:30;;;;;;;3.27;1.73;;;;;;;13.91;86.86;95655.09;4958122;28;20185;-79
2021/07/07 05:32:57;;;;;;;4.00;1.50;;;;;;;13.94;87.15;95646.91;4955831;28;20292;-79
2021/07/07 05:35:23;;;;;;;4.03;1.50;;;;;;;13.82;87.22;95641.22;4967048;28;20604;-79
2021/07/07 05:37:48;;;;;;;5.07;1.73;;;;;;;13.93;87.11;95653.13;4959802;28;20185;-79
2021/07/07 05:40:15;;;;;;;3.77;1.80;;;;;;;14.04;86.85;95644.94;4955887;28;20220;-82
2021/07/07 05:42:41;;;;;;;3.03;1.67;;;;;;;14.01;86.96;95640.88;4971921;28;20630;-79
2021/07/07 05:45:06;;;;;;;2.70;1.50;;;;;;;14.04;87.04;95650.16;4973191;28;20192;-80
2021/07/07 05:47:32;;;;;;;2.90;1.40;;;;;;;14.07;87.10;95649.84;4963822;28;20212;-78
2021/07/07 05:49:57;;;;;;;3.80;1.80;;;;;;;14.06;87.19;95648.22;4960484;28;20256;-78
2021/07/07 05:52:24;;;;;;;4.63;2.40;;;;;;;14.02;87.19;95645.09;4952481;29;20673;-78
2021/07/07 05:54:50;;;;;;;3.93;2.23;;;;;;;14.02;87.56;95641.69;4954121;28;20204;-78
2021/07/07 05:57:15;;;;;;;3.83;1.83;;;;;;;14.07;87.52;95644.63;4979546;28;20188;-78
2021/07/07 05:59:40;;;;;;;5.07;1.97;;;;;;;14.14;87.88;95648.22;4958328;28;20748;-79
2021/07/07 06:02:06;;;;;;;4.17;1.70;;;;;;;14.13;87.75;95643.94;4971964;28;20614;-79
2021/07/07 06:04:31;;;;;;;3.67;1.50;;;;;;;14.24;85.98;95622.72;4955876;28;20189;-79
2021/07/07 06:06:56;;;;;;;2.50;1.57;;;;;;;14.41;85.82;95613.84;4979066;28;20214;-76
2021/07/07 06:09:21;;;;;;;2.93;1.63;;;;;;;14.27;85.66;95624.97;4983189;28;20180;-75
2021/07/07 06:11:47;;;;;;;2.47;1.33;;;;;;;14.06;86.28;95629.94;4991513;28;20246;-75
2021/07/07 06:14:12;;;;;;;3.13;1.47;;;;;;;14.07;86.54;95639.41;4991554;28;20261;-76
2021/07/07 06:16:37;;;;;;;3.77;1.50;;;;;;;14.02;86.27;95646.91;4960996;28;20259;-76
2021/07/07 06:19:03;;;;;;;4.17;1.47;;;;;;;13.92;86.09;95656.72;4963123;28;20224;-76
2021/07/07 06:21:28;;;;;;;4.63;1.37;;;;;;;13.89;85.88;95663.09;4974396;28;20191;-76
2021/07/07 06:23:53;;;;;;;4.33;1.73;;;;;;;13.91;86.04;95665.53;4982033;28;20640;-76
2021/07/07 06:26:19;;;;;;;4.83;1.87;;;;;;;13.89;85.90;95668.31;4939624;29;20196;-76
2021/07/07 06:28:44;;;;;;;2.27;1.50;;;;;;;13.92;86.29;95678.41;4978420;28;20184;-75
2021/07/07 06:31:09;;;;;;;5.27;1.70;;;;;;;13.98;87.15;95683.00;4971431;28;20180;-74
2021/07/07 06:33:35;;;;;;;4.97;2.27;;;;;;;13.81;87.39;95686.59;4978573;28;20208;-75
2021/07/07 06:36:00;;;;;;;2.00;1.53;;;;;;;13.78;88.46;95692.13;4994853;28;20172;-75
2021/07/07 06:38:25;;;;;;;4.23;1.73;;;;;;;13.87;88.18;95696.38;4989440;28;20216;-73
2021/07/07 06:40:51;;;;;;;2.73;1.50;;;;;;;13.83;88.07;95713.34;4983312;28;20738;-75
2021/07/07 06:43:17;;;;;;;4.37;1.50;;;;;;;13.80;87.49;95706.66;4974412;28;20239;-74
2021/07/07 06:45:43;;;;;;;3.50;1.80;;;;;;;13.78;87.53;95707.78;4974882;28;20551;-75
2021/07/07 06:48:10;;;;;;;3.37;1.60;;;;;;;13.84;88.63;95707.94;4973145;28;20203;-74
2021/07/07 06:50:36;;;;;;;3.00;1.50;;;;;;;13.86;87.54;95708.59;4972697;28;20716;-77
2021/07/07 06:53:02;;;;;;;3.03;1.83;;;;;;;14.11;87.10;95713.81;4991468;28;20303;-77
2021/07/07 06:55:27;;;;;;;4.13;1.77;;;;;;;14.13;86.29;95711.84;4997824;28;20540;-77
2021/07/07 06:57:53;;;;;;;4.33;1.87;;;;;;;14.31;85.60;95704.66;4995864;28;20199;-76
2021/07/07 07:00:19;;;;;;;2.43;1.50;;;;;;;14.66;85.45;95706.03;4987562;28;20192;-77
2021/07/07 07:02:45;;;;;;;1.60;1.47;;;;;;;14.88;85.20;95712.31;4982338;28;20204;-79
2021/07/07 07:05:12;;;;;;;3.80;2.40;;;;;;;15.04;83.39;95702.78;4975189;28;20540;-80
2021/07/07 07:07:37;;;;;;;5.00;1.77;;;;;;;15.18;81.80;95710.69;4958399;28;20181;-81
2021/07/07 07:10:04;;;;;;;2.17;1.40;;;;;;;15.07;81.70;95715.50;4967630;28;20249;-77
2021/07/07 07:12:30;;;;;;;2.53;1.40;;;;;;;14.85;80.72;95720.53;4996378;28;20671;-80
2021/07/07 07:14:56;;;;;;;5.13;1.70;;;;;;;14.87;80.58;95723.78;4994694;28;20314;-80
2021/07/07 07:17:23;;;;;;;3.15;1.52;;;;;;;15.08;80.00;95712.72;4978432;28;20182;-77
2021/07/07 07:19:49;;;;;;;4.88;1.65;;;;;;;15.10;80.24;95720.38;4968282;28;20215;-81
2021/07/07 07:22:15;;;;;;;2.53;1.30;;;;;;;15.08;80.47;95719.75;4986294;28;20219;-81
2021/07/07 07:24:40;;;;;;;5.45;1.42;;;;;;;15.20;80.10;95721.81;4995808;28;20184;-80
2021/07/07 07:27:06;;;;;;;5.78;1.45;;;;;;;15.44;79.94;95722.66;4993998;28;20674;-78
2021/07/07 07:29:32;;;;;;;3.85;1.50;;;;;;;15.76;78.67;95724.28;4990638;28;20187;-77
2021/07/07 07:31:57;;;;;;;4.20;1.67;;;;;;;16.17;77.54;95721.31;4985311;28;20675;-78
2021/07/07 07:34:22;;;;;;;2.30;1.45;;;;;;;16.82;74.93;95723.31;4993270;28;20179;-77
2021/07/07 07:36:50;;;;;;;5.30;1.77;;;;;;;17.25;73.42;95721.63;4968781;28;20207;-76
2021/07/07 07:39:20;;;;;;;4.90;1.40;;;;;;;17.09;71.40;95730.50;4958091;28;20201;-77
2021/07/07 07:41:45;;;;;;;3.25;1.30;;;;;;;17.29;72.14;95722.84;4979296;28;20259;-76
2021/07/07 07:44:11;;;;;;;3.92;1.50;;;;;;;16.91;73.12;95723.03;4992374;28;20543;-78
2021/07/07 07:46:37;;;;;;;2.92;1.30;;;;;;;17.05;73.83;95726.63;4977613;28;20183;-77
2021/07/07 07:49:04;;;;;;;2.58;1.20;;;;;;;17.02;73.64;95726.16;4993617;28;20226;-78
2021/07/07 07:51:31;;;;;;;4.93;1.83;;;;;;;16.86;73.21;95732.41;4983601;28;20302;-77
2021/07/07 07:53:57;;;;;;;4.13;1.40;;;;;;;17.23;72.35;95750.69;4984724;28;20282;-77
2021/07/07 07:56:23;;;;;;;2.10;1.15;;;;;;;17.10;72.99;95749.69;4993335;28;20183;-78
2021/07/07 07:58:48;;;;;;;2.45;1.60;;;;;;;17.24;72.64;95752.31;4992946;28;20582;-79
2021/07/07 08:01:14;;;;;;;3.80;1.35;;;;;;;16.96;72.35;95741.66;4987259;28;20180;-78
2021/07/07 08:03:39;;;;;;;2.67;1.33;;;;;;;16.99;73.13;95748.34;4986218;28;20192;-76
2021/07/07 08:06:05;;;;;;;3.47;1.25;;;;;;;17.06;71.71;95756.31;4995804;28;20172;-76
2021/07/07 08:08:30;;;;;;;3.03;1.30;;;;;;;17.18;72.38;95760.09;4979340;28;20196;-76
2021/07/07 08:10:56;;;;;;;5.40;1.65;;;;;;;17.69;71.26;95746.94;4956010;29;20189;-76
2021/07/07 08:13:21;;;;;;;2.00;1.30;;;;;;;17.97;69.85;95758.34;4980380;28;20207;-77
2021/07/07 08:15:46;;;;;;;4.80;1.40;;;;;;;18.15;70.35;95763.16;4981757;28;20196;-76
2021/07/07 08:18:12;;;;;;;2.75;1.00;;;;;;;18.43;67.58;95765.81;4993974;28;20674;-76
2021/07/07 08:20:38;;;;;;;4.10;1.08;;;;;;;18.06;67.16;95749.34;4994972;28;20180;-77
2021/07/07 08:23:04;;;;;;;1.83;1.00;;;;;;;17.81;67.92;95751.53;4984777;28;20208;-77
2021/07/07 08:25:29;;;;;;;4.28;0.95;;;;;;;17.33;69.26;95763.50;4989378;28;20188;-77
2021/07/07 08:27:55;;;;;;;1.30;1.10;;;;;;;17.12;69.59;95768.69;4974126;28;20172;-76
2021/07/07 08:30:21;;;;;;;2.15;1.20;;;;;;;16.99;71.51;95764.09;4974216;28;20172;-75
2021/07/07 08:32:46;;;;;;;3.72;1.20;;;;;;;17.04;70.27;95751.22;4972031;28;20238;-77
2021/07/07 08:35:12;;;;;;;1.23;1.00;;;;;;;17.38;70.10;95770.81;4986522;28;20230;-76
2021/07/07 08:37:39;;;;;;;1.65;1.33;;;;;;;17.77;69.49;95771.28;4993993;28;20176;-76
2021/07/07 08:40:06;;;;;;;2.00;1.23;;;;;;;18.11;69.69;95772.44;4992668;28;20207;-77
2021/07/07 08:42:34;;;;;;;2.42;1.20;;;;;;;18.49;69.12;95782.66;4992203;28;20218;-77
2021/07/07 08:45:07;;;;;;;2.25;1.20;;;;;;;18.58;68.55;95784.94;4964712;28;20215;-77
2021/07/07 08:47:33;;;;;;;6.32;1.40;;;;;;;18.73;68.08;95791.94;4970812;28;20176;-77
2021/07/07 08:49:58;;;;;;;2.50;1.40;;;;;;;18.62;68.91;95790.63;4976022;28;20183;-77
2021/07/07 08:52:23;;;;;;;2.45;1.38;;;;;;;18.04;69.25;95782.88;4991386;28;20199;-77
2021/07/07 08:54:49;;;;;;;4.05;1.70;;;;;;;18.00;69.17;95773.72;4983028;28;20192;-77
2021/07/07 08:57:14;;;;;;;1.90;1.20;;;;;;;18.26;68.09;95769.72;4967495;28;20179;-77
2021/07/07 08:59:40;;;;;;;3.30;1.50;;;;;;;17.96;69.29;95769.88;4992810;28;20208;-76
2021/07/07 09:02:07;;;;;;;1.88;1.13;;;;;;;18.25;68.51;95773.34;4992175;28;20571;-77
2021/07/07 09:04:59;;;;;;;2.60;1.30;;;;;;;18.58;67.50;95778.88;4976541;28;20176;-76
2021/07/07 09:07:35;;;;;;;3.75;1.30;;;;;;;18.47;67.93;95776.78;4972535;28;20229;-77
2021/07/07 09:10:01;;;;;;;2.38;1.20;;;;;;;18.43;67.67;95780.78;4973451;28;20179;-77
2021/07/07 09:12:29;;;;;;;6.18;1.50;;;;;;;18.30;68.37;95782.31;4974355;28;20204;-76
2021/07/07 09:15:09;;;;;;;4.75;2.00;;;;;;;18.29;67.00;95785.94;4973058;28;20232;-77
2021/07/07 09:17:49;;;;;;;1.50;1.25;;;;;;;18.33;66.45;95787.16;4978696;28;20195;-76
2021/07/07 09:20:18;;;;;;;3.83;1.42;;;;;;;18.15;67.13;95797.31;4983173;28;20191;-77
2021/07/07 09:22:44;;;;;;;2.75;1.45;;;;;;;17.82;68.62;95810.13;4994904;28;20200;-79
2021/07/07 09:25:09;;;;;;;2.95;1.33;;;;;;;17.76;69.69;95805.63;4977520;28;20191;-79
2021/07/07 09:27:36;;;;;;;2.58;1.50;;;;;;;17.70;70.78;95819.50;4985349;28;20188;-79
2021/07/07 09:30:10;;;;;;;3.15;1.30;;;;;;;17.92;71.16;95818.50;4957551;28;20264;-79
2021/07/07 09:32:45;;;;;;;3.78;1.60;;;;;;;17.39;69.47;95828.38;4957409;28;20208;-80
2021/07/07 09:35:11;;;;;;;2.72;1.33;;;;;;;17.26;70.43;95825.59;4957459;28;20542;-79
2021/07/07 09:37:41;;;;;;;4.82;1.63;;;;;;;17.09;70.07;95829.41;4978200;28;20218;-78
2021/07/07 09:40:09;;;;;;;8.23;1.50;;;;;;;17.09;71.29;95830.22;4968744;28;20211;-78
2021/07/07 09:42:35;;;;;;;2.45;1.40;;;;;;;17.05;71.25;95831.59;4976248;28;20592;-79
2021/07/07 09:45:03;;;;;;;4.55;1.50;;;;;;;17.11;70.33;95833.47;4992797;28;20262;-78
2021/07/07 09:47:29;;;;;;;2.97;1.40;;;;;;;17.25;70.54;95840.53;4960899;28;20711;-78
2021/07/07 09:49:55;;;;;;;4.07;1.40;;;;;;;17.21;69.83;95834.00;4962202;28;20264;-79
2021/07/07 09:52:23;;;;;;;5.70;1.45;;;;;;;16.99;69.98;95837.53;4991517;28;20886;-79
2021/07/07 09:54:49;;;;;;;2.25;1.40;;;;;;;16.93;69.90;95831.19;4991471;28;20689;-78
2021/07/07 09:57:15;;;;;;;5.28;1.20;;;;;;;16.96;70.64;95836.09;4966144;28;20267;-79
2021/07/07 09:59:41;;;;;;;3.45;1.30;;;;;;;16.98;70.52;95834.09;4978294;28;20207;-78
2021/07/07 10:02:06;;;;;;;2.67;1.50;;;;;;;17.44;69.94;95840.97;4996300;28;20208;-77
2021/07/07 10:04:34;;;;;;;2.38;1.30;;;;;;;17.69;69.09;95834.41;4963362;28;20229;-79
2021/07/07 10:07:01;;;;;;;2.55;1.35;;;;;;;17.50;68.98;95838.44;4991754;28;20188;-79
2021/07/07 10:09:27;;;;;;;1.95;1.33;;;;;;;17.73;68.53;95827.00;4957173;28;20181;-78
2021/07/07 10:11:56;;;;;;;3.67;1.50;;;;;;;18.06;67.01;95824.72;4950032;28;20208;-79
2021/07/07 10:14:23;;;;;;;4.45;2.28;;;;;;;18.45;66.80;95821.63;4956033;28;20227;-77
2021/07/07 10:16:49;;;;;;;5.38;1.30;;;;;;;18.76;64.89;95828.41;4978703;28;20204;-79
2021/07/07 10:19:16;;;;;;;3.78;1.23;;;;;;;18.63;64.82;95832.50;5002723;28;20550;-79
2021/07/07 10:21:41;;;;;;;4.70;1.20;;;;;;;18.52;65.02;95826.97;4982787;28;20203;-78
2021/07/07 10:24:08;;;;;;;5.43;1.40;;;;;;;18.81;63.82;95826.78;4995551;28;20210;-77
2021/07/07 10:26:33;;;;;;;5.65;1.45;;;;;;;18.45;64.13;95828.72;4943551;28;20189;-78
2021/07/07 10:28:58;;;;;;;3.38;1.42;;;;;;;18.73;64.03;95820.88;4949108;28;20191;-78
2021/07/07 10:31:47;;;;;;;1.10;1.00;;;;;;;18.70;61.56;95819.44;4987339;28;20203;-77
2021/07/07 10:34:13;;;;;;;2.78;1.25;;;;;;;18.68;60.10;95821.47;4995836;28;20214;-78
2021/07/07 10:36:40;;;;;;;3.67;1.27;;;;;;;19.07;59.59;95820.09;4990576;28;20192;-77
2021/07/07 10:39:07;;;;;;;2.17;1.10;;;;;;;19.50;58.61;95816.25;4957222;28;20700;-77
2021/07/07 10:41:42;;;;;;;3.67;1.38;;;;;;;19.83;56.93;95822.69;4966614;28;20609;-78
2021/07/07 10:44:28;;;;;;;2.97;1.20;;;;;;;20.26;56.49;95817.94;4976855;28;20186;-79
2021/07/07 10:46:59;;;;;;;2.40;1.40;;;;;;;20.03;58.20;95827.00;4977170;28;20222;-77
2021/07/07 10:49:38;;;;;;;2.97;1.38;;;;;;;20.46;56.39;95826.69;4973711;28;20173;-77
2021/07/07 10:52:05;;;;;;;1.45;1.02;;;;;;;20.87;56.03;95834.41;4982255;28;20282;-78
2021/07/07 10:54:34;;;;;;;3.47;1.30;;;;;;;20.90;55.97;95833.19;4967834;28;20672;-77
2021/07/07 10:57:02;;;;;;;1.83;1.05;;;;;;;20.99;55.45;95831.13;4939643;29;20224;-78
2021/07/07 10:59:31;;;;;;;2.53;1.30;;;;;;;21.18;54.12;95830.28;4955232;29;20197;-77
2021/07/07 11:02:20;;;;;;;3.08;1.33;;;;;;;21.07;54.86;95834.38;4971493;28;20535;-77
2021/07/07 11:04:50;;;;;;;3.15;1.25;;;;;;;20.37;56.70;95827.88;4978866;28;20614;-76
2021/07/07 11:07:30;;;;;;;3.13;1.58;;;;;;;21.22;55.88;95831.50;4958229;28;20180;-77
2021/07/07 11:10:02;;;;;;;4.18;1.80;;;;;;;21.21;55.97;95832.53;4974751;28;20207;-78
2021/07/07 11:12:36;;;;;;;2.78;1.33;;;;;;;21.15;56.76;95826.22;4975175;28;20206;-78
2021/07/07 11:15:08;;;;;;;2.72;1.40;;;;;;;21.59;54.22;95826.53;4993043;28;20188;-77
2021/07/07 11:17:38;;;;;;;4.07;1.40;;;;;;;21.76;53.43;95823.22;4995302;28;20547;-78
2021/07/07 11:20:10;;;;;;;5.28;1.50;;;;;;;21.84;55.64;95824.81;4960751;28;20200;-78
2021/07/07 11:22:41;;;;;;;4.00;1.40;;;;;;;21.82;54.07;95820.72;4956335;28;20640;-77
2021/07/07 11:25:08;;;;;;;2.58;1.40;;;;;;;21.44;57.29;95827.59;4986691;28;20176;-77
2021/07/07 11:27:34;;;;;;;1.90;1.20;;;;;;;21.71;53.98;95830.16;4975067;28;20176;-77
2021/07/07 11:30:04;;;;;;;3.65;1.27;;;;;;;22.03;54.41;95829.19;4974142;28;20180;-77
2021/07/07 11:32:32;;;;;;;4.60;1.80;;;;;;;22.11;52.54;95825.50;4972379;28;20208;-77